sensor_id;sensor_type;location;lat;lon;timestamp;P1;durP1;ratioP1;P2;durP2;ratioP2
64029;SDS011;50277;52.064;4.492;2024-03-29T00:02:07;9.80;;;1.55;;
64029;SDS011;50277;52.064;4.492;2024-03-29T00:04:33;5.03;;;1.55;;
64029;SDS011;50277;52.064;4.492;2024-03-29T00:06:58;5.50;;;1.55;;
64029;SDS011;50277;52.064;4.492;2024-03-29T00:09:24;5.65;;;1.55;;
64029;SDS011;50277;52.064;4.492;2024-03-29T00:11:49;7.70;;;2.08;;
64029;SDS011;50277;52.064;4.492;2024-03-29T00:14:14;8.50;;;1.80;;
64029;SDS011;50277;52.064;4.492;2024-03-29T00:16:40;6.18;;;1.50;;
64029;SDS011;50277;52.064;4.492;2024-03-29T00:19:05;6.63;;;1.70;;
64029;SDS011;50277;52.064;4.492;2024-03-29T00:21:30;5.13;;;1.77;;
64029;SDS011;50277;52.064;4.492;2024-03-29T00:23:56;5.97;;;1.85;;
64029;SDS011;50277;52.064;4.492;2024-03-29T00:26:21;5.45;;;1.45;;
64029;SDS011;50277;52.064;4.492;2024-03-29T00:28:46;8.23;;;1.65;;
64029;SDS011;50277;52.064;4.492;2024-03-29T00:31:12;7.05;;;1.40;;
64029;SDS011;50277;52.064;4.492;2024-03-29T00:33:37;5.63;;;1.60;;
64029;SDS011;50277;52.064;4.492;2024-03-29T00:36:03;8.70;;;1.58;;
64029;SDS011;50277;52.064;4.492;2024-03-29T00:38:28;7.07;;;1.60;;
64029;SDS011;50277;52.064;4.492;2024-03-29T00:40:54;7.38;;;1.45;;
64029;SDS011;50277;52.064;4.492;2024-03-29T00:43:19;3.85;;;1.27;;
64029;SDS011;50277;52.064;4.492;2024-03-29T00:45:44;3.05;;;1.52;;
64029;SDS011;50277;52.064;4.492;2024-03-29T00:48:10;6.35;;;1.80;;
64029;SDS011;50277;52.064;4.492;2024-03-29T00:50:35;4.70;;;1.60;;
64029;SDS011;50277;52.064;4.492;2024-03-29T00:53:02;9.40;;;1.70;;
64029;SDS011;50277;52.064;4.492;2024-03-29T00:55:28;6.68;;;1.77;;
64029;SDS011;50277;52.064;4.492;2024-03-29T00:57:53;6.50;;;1.77;;
64029;SDS011;50277;52.064;4.492;2024-03-29T01:00:19;9.23;;;1.48;;
64029;SDS011;50277;52.064;4.492;2024-03-29T01:02:44;4.65;;;1.52;;
64029;SDS011;50277;52.064;4.492;2024-03-29T01:05:10;5.47;;;1.75;;
64029;SDS011;50277;52.064;4.492;2024-03-29T01:07:35;6.15;;;1.63;;
64029;SDS011;50277;52.064;4.492;2024-03-29T01:10:01;9.27;;;1.50;;
64029;SDS011;50277;52.064;4.492;2024-03-29T01:12:26;5.00;;;1.58;;
64029;SDS011;50277;52.064;4.492;2024-03-29T01:14:52;6.55;;;1.63;;
64029;SDS011;50277;52.064;4.492;2024-03-29T01:17:17;3.72;;;1.58;;
64029;SDS011;50277;52.064;4.492;2024-03-29T01:19:43;4.93;;;1.55;;
64029;SDS011;50277;52.064;4.492;2024-03-29T01:22:08;9.27;;;1.90;;
64029;SDS011;50277;52.064;4.492;2024-03-29T01:24:33;5.97;;;1.48;;
64029;SDS011;50277;52.064;4.492;2024-03-29T01:26:59;6.47;;;1.40;;
64029;SDS011;50277;52.064;4.492;2024-03-29T01:29:24;8.43;;;1.70;;
64029;SDS011;50277;52.064;4.492;2024-03-29T01:31:50;8.77;;;1.52;;
64029;SDS011;50277;52.064;4.492;2024-03-29T01:34:15;5.30;;;1.50;;
64029;SDS011;50277;52.064;4.492;2024-03-29T01:36:41;11.60;;;1.85;;
64029;SDS011;50277;52.064;4.492;2024-03-29T01:39:06;6.18;;;1.92;;
64029;SDS011;50277;52.064;4.492;2024-03-29T01:41:33;4.90;;;1.35;;
64029;SDS011;50277;52.064;4.492;2024-03-29T01:43:59;5.72;;;1.38;;
64029;SDS011;50277;52.064;4.492;2024-03-29T01:46:24;8.50;;;1.88;;
64029;SDS011;50277;52.064;4.492;2024-03-29T01:48:50;6.50;;;2.08;;
64029;SDS011;50277;52.064;4.492;2024-03-29T01:51:16;4.45;;;1.50;;
64029;SDS011;50277;52.064;4.492;2024-03-29T01:53:42;9.73;;;1.60;;
64029;SDS011;50277;52.064;4.492;2024-03-29T01:56:08;8.13;;;1.90;;
64029;SDS011;50277;52.064;4.492;2024-03-29T01:58:34;6.35;;;1.67;;
64029;SDS011;50277;52.064;4.492;2024-03-29T02:01:00;6.97;;;2.00;;
64029;SDS011;50277;52.064;4.492;2024-03-29T02:03:25;5.70;;;1.50;;
64029;SDS011;50277;52.064;4.492;2024-03-29T02:05:51;4.20;;;1.95;;
64029;SDS011;50277;52.064;4.492;2024-03-29T02:08:17;4.93;;;1.30;;
64029;SDS011;50277;52.064;4.492;2024-03-29T02:10:43;8.18;;;1.60;;
64029;SDS011;50277;52.064;4.492;2024-03-29T02:13:09;7.00;;;1.63;;
64029;SDS011;50277;52.064;4.492;2024-03-29T02:15:34;11.15;;;1.80;;
64029;SDS011;50277;52.064;4.492;2024-03-29T02:18:00;4.40;;;1.92;;
64029;SDS011;50277;52.064;4.492;2024-03-29T02:20:25;5.75;;;1.35;;
64029;SDS011;50277;52.064;4.492;2024-03-29T02:22:54;8.32;;;1.60;;
64029;SDS011;50277;52.064;4.492;2024-03-29T02:25:20;7.30;;;1.60;;
64029;SDS011;50277;52.064;4.492;2024-03-29T02:27:46;8.35;;;1.70;;
64029;SDS011;50277;52.064;4.492;2024-03-29T02:30:15;5.60;;;1.60;;
64029;SDS011;50277;52.064;4.492;2024-03-29T02:32:41;5.32;;;1.52;;
64029;SDS011;50277;52.064;4.492;2024-03-29T02:35:07;3.17;;;1.50;;
64029;SDS011;50277;52.064;4.492;2024-03-29T02:37:33;4.68;;;1.90;;
64029;SDS011;50277;52.064;4.492;2024-03-29T02:40:00;8.10;;;1.90;;
64029;SDS011;50277;52.064;4.492;2024-03-29T02:42:25;5.65;;;1.95;;
64029;SDS011;50277;52.064;4.492;2024-03-29T02:44:50;6.05;;;1.67;;
64029;SDS011;50277;52.064;4.492;2024-03-29T02:47:16;5.97;;;1.42;;
64029;SDS011;50277;52.064;4.492;2024-03-29T02:49:41;3.83;;;1.42;;
64029;SDS011;50277;52.064;4.492;2024-03-29T02:52:06;7.65;;;1.42;;
64029;SDS011;50277;52.064;4.492;2024-03-29T02:54:32;4.90;;;1.70;;
64029;SDS011;50277;52.064;4.492;2024-03-29T02:56:57;6.90;;;1.70;;
64029;SDS011;50277;52.064;4.492;2024-03-29T02:59:23;5.03;;;1.42;;
64029;SDS011;50277;52.064;4.492;2024-03-29T03:01:48;4.47;;;1.58;;
64029;SDS011;50277;52.064;4.492;2024-03-29T03:04:13;5.63;;;1.40;;
64029;SDS011;50277;52.064;4.492;2024-03-29T03:06:39;6.88;;;1.88;;
64029;SDS011;50277;52.064;4.492;2024-03-29T03:09:04;4.75;;;1.33;;
64029;SDS011;50277;52.064;4.492;2024-03-29T03:11:48;4.65;;;1.25;;
64029;SDS011;50277;52.064;4.492;2024-03-29T03:14:13;6.10;;;1.20;;
64029;SDS011;50277;52.064;4.492;2024-03-29T03:16:38;7.35;;;2.15;;
64029;SDS011;50277;52.064;4.492;2024-03-29T03:19:04;3.95;;;1.70;;
64029;SDS011;50277;52.064;4.492;2024-03-29T03:21:29;6.10;;;1.42;;
64029;SDS011;50277;52.064;4.492;2024-03-29T03:23:54;2.85;;;1.42;;
64029;SDS011;50277;52.064;4.492;2024-03-29T03:26:20;3.42;;;1.15;;
64029;SDS011;50277;52.064;4.492;2024-03-29T03:28:45;3.63;;;1.20;;
64029;SDS011;50277;52.064;4.492;2024-03-29T03:31:10;4.32;;;1.30;;
64029;SDS011;50277;52.064;4.492;2024-03-29T03:33:36;4.00;;;1.42;;
64029;SDS011;50277;52.064;4.492;2024-03-29T03:36:01;4.72;;;1.65;;
64029;SDS011;50277;52.064;4.492;2024-03-29T03:38:27;5.85;;;0.90;;
64029;SDS011;50277;52.064;4.492;2024-03-29T03:40:52;2.80;;;1.00;;
64029;SDS011;50277;52.064;4.492;2024-03-29T03:43:18;5.00;;;1.40;;
64029;SDS011;50277;52.064;4.492;2024-03-29T03:45:43;2.35;;;1.10;;
64029;SDS011;50277;52.064;4.492;2024-03-29T03:48:09;2.70;;;1.00;;
64029;SDS011;50277;52.064;4.492;2024-03-29T03:50:36;3.08;;;1.00;;
64029;SDS011;50277;52.064;4.492;2024-03-29T03:53:01;1.48;;;0.80;;
64029;SDS011;50277;52.064;4.492;2024-03-29T03:55:27;1.58;;;0.80;;
64029;SDS011;50277;52.064;4.492;2024-03-29T03:57:53;3.25;;;1.25;;
64029;SDS011;50277;52.064;4.492;2024-03-29T04:00:19;3.35;;;1.50;;
64029;SDS011;50277;52.064;4.492;2024-03-29T04:02:48;1.45;;;0.90;;
64029;SDS011;50277;52.064;4.492;2024-03-29T04:05:14;4.22;;;1.10;;
64029;SDS011;50277;52.064;4.492;2024-03-29T04:07:39;3.88;;;1.00;;
64029;SDS011;50277;52.064;4.492;2024-03-29T04:10:05;3.60;;;1.00;;
64029;SDS011;50277;52.064;4.492;2024-03-29T04:12:30;2.60;;;0.90;;
64029;SDS011;50277;52.064;4.492;2024-03-29T04:14:56;3.45;;;1.20;;
64029;SDS011;50277;52.064;4.492;2024-03-29T04:17:22;3.05;;;1.10;;
64029;SDS011;50277;52.064;4.492;2024-03-29T04:19:48;1.70;;;0.70;;
64029;SDS011;50277;52.064;4.492;2024-03-29T04:22:13;1.38;;;0.88;;
64029;SDS011;50277;52.064;4.492;2024-03-29T04:24:39;2.00;;;0.68;;
64029;SDS011;50277;52.064;4.492;2024-03-29T04:27:04;3.50;;;0.93;;
64029;SDS011;50277;52.064;4.492;2024-03-29T04:29:29;1.95;;;1.00;;
64029;SDS011;50277;52.064;4.492;2024-03-29T04:31:55;2.60;;;1.00;;
64029;SDS011;50277;52.064;4.492;2024-03-29T04:34:20;1.35;;;0.88;;
64029;SDS011;50277;52.064;4.492;2024-03-29T04:36:45;2.10;;;0.57;;
64029;SDS011;50277;52.064;4.492;2024-03-29T04:39:11;2.95;;;0.73;;
64029;SDS011;50277;52.064;4.492;2024-03-29T04:41:36;1.35;;;0.60;;
64029;SDS011;50277;52.064;4.492;2024-03-29T04:44:01;2.08;;;0.68;;
64029;SDS011;50277;52.064;4.492;2024-03-29T04:46:29;0.45;;;0.45;;
64029;SDS011;50277;52.064;4.492;2024-03-29T04:48:55;0.95;;;0.63;;
64029;SDS011;50277;52.064;4.492;2024-03-29T04:51:20;3.08;;;1.20;;
64029;SDS011;50277;52.064;4.492;2024-03-29T04:53:45;4.57;;;1.77;;
64029;SDS011;50277;52.064;4.492;2024-03-29T04:56:11;1.38;;;1.13;;
64029;SDS011;50277;52.064;4.492;2024-03-29T04:58:36;1.35;;;1.00;;
64029;SDS011;50277;52.064;4.492;2024-03-29T05:01:02;1.33;;;0.77;;
64029;SDS011;50277;52.064;4.492;2024-03-29T05:03:27;0.65;;;0.65;;
64029;SDS011;50277;52.064;4.492;2024-03-29T05:05:52;0.65;;;0.60;;
64029;SDS011;50277;52.064;4.492;2024-03-29T05:08:18;2.47;;;1.00;;
64029;SDS011;50277;52.064;4.492;2024-03-29T05:10:44;1.45;;;0.70;;
64029;SDS011;50277;52.064;4.492;2024-03-29T05:13:10;2.13;;;0.68;;
64029;SDS011;50277;52.064;4.492;2024-03-29T05:15:35;1.65;;;0.70;;
64029;SDS011;50277;52.064;4.492;2024-03-29T05:18:01;1.40;;;0.68;;
64029;SDS011;50277;52.064;4.492;2024-03-29T05:20:27;2.10;;;0.80;;
64029;SDS011;50277;52.064;4.492;2024-03-29T05:22:52;1.40;;;1.02;;
64029;SDS011;50277;52.064;4.492;2024-03-29T05:25:18;2.90;;;1.15;;
64029;SDS011;50277;52.064;4.492;2024-03-29T05:27:43;0.80;;;0.80;;
64029;SDS011;50277;52.064;4.492;2024-03-29T05:30:08;2.45;;;0.88;;
64029;SDS011;50277;52.064;4.492;2024-03-29T05:32:38;0.73;;;0.73;;
64029;SDS011;50277;52.064;4.492;2024-03-29T05:35:03;0.80;;;0.73;;
64029;SDS011;50277;52.064;4.492;2024-03-29T05:37:29;3.28;;;0.90;;
64029;SDS011;50277;52.064;4.492;2024-03-29T05:39:54;1.45;;;1.02;;
64029;SDS011;50277;52.064;4.492;2024-03-29T05:42:26;2.75;;;0.80;;
64029;SDS011;50277;52.064;4.492;2024-03-29T05:44:51;1.67;;;0.63;;
64029;SDS011;50277;52.064;4.492;2024-03-29T05:47:17;0.50;;;0.50;;
64029;SDS011;50277;52.064;4.492;2024-03-29T05:49:42;1.40;;;0.80;;
64029;SDS011;50277;52.064;4.492;2024-03-29T05:52:07;0.52;;;0.52;;
64029;SDS011;50277;52.064;4.492;2024-03-29T05:54:33;0.65;;;0.60;;
64029;SDS011;50277;52.064;4.492;2024-03-29T05:56:58;0.85;;;0.60;;
64029;SDS011;50277;52.064;4.492;2024-03-29T05:59:23;1.20;;;0.65;;
64029;SDS011;50277;52.064;4.492;2024-03-29T06:01:49;2.22;;;0.80;;
64029;SDS011;50277;52.064;4.492;2024-03-29T06:04:14;0.65;;;0.52;;
64029;SDS011;50277;52.064;4.492;2024-03-29T06:06:44;0.77;;;0.77;;
64029;SDS011;50277;52.064;4.492;2024-03-29T06:09:09;2.25;;;2.05;;
64029;SDS011;50277;52.064;4.492;2024-03-29T06:11:35;0.80;;;0.80;;
64029;SDS011;50277;52.064;4.492;2024-03-29T06:14:00;2.28;;;0.80;;
64029;SDS011;50277;52.064;4.492;2024-03-29T06:16:26;1.10;;;1.00;;
64029;SDS011;50277;52.064;4.492;2024-03-29T06:19:11;1.17;;;0.80;;
64029;SDS011;50277;52.064;4.492;2024-03-29T06:21:36;1.35;;;0.73;;
64029;SDS011;50277;52.064;4.492;2024-03-29T06:24:09;2.17;;;0.90;;
64029;SDS011;50277;52.064;4.492;2024-03-29T06:26:39;1.05;;;0.73;;
64029;SDS011;50277;52.064;4.492;2024-03-29T06:29:04;5.47;;;0.93;;
64029;SDS011;50277;52.064;4.492;2024-03-29T06:31:30;1.00;;;0.93;;
64029;SDS011;50277;52.064;4.492;2024-03-29T06:33:57;2.85;;;0.70;;
64029;SDS011;50277;52.064;4.492;2024-03-29T06:36:22;1.88;;;0.90;;
64029;SDS011;50277;52.064;4.492;2024-03-29T06:38:48;3.00;;;1.15;;
64029;SDS011;50277;52.064;4.492;2024-03-29T06:41:14;3.15;;;1.13;;
64029;SDS011;50277;52.064;4.492;2024-03-29T06:43:41;3.25;;;1.10;;
64029;SDS011;50277;52.064;4.492;2024-03-29T06:46:09;2.65;;;0.95;;
64029;SDS011;50277;52.064;4.492;2024-03-29T06:48:34;4.28;;;1.05;;
64029;SDS011;50277;52.064;4.492;2024-03-29T06:50:59;6.10;;;1.02;;
64029;SDS011;50277;52.064;4.492;2024-03-29T06:53:25;3.45;;;1.02;;
64029;SDS011;50277;52.064;4.492;2024-03-29T06:55:50;3.03;;;0.95;;
64029;SDS011;50277;52.064;4.492;2024-03-29T06:58:16;1.67;;;0.82;;
64029;SDS011;50277;52.064;4.492;2024-03-29T07:00:43;2.20;;;0.70;;
64029;SDS011;50277;52.064;4.492;2024-03-29T07:03:10;0.85;;;0.80;;
64029;SDS011;50277;52.064;4.492;2024-03-29T07:05:35;0.93;;;0.85;;
64029;SDS011;50277;52.064;4.492;2024-03-29T07:08:01;2.30;;;1.02;;
64029;SDS011;50277;52.064;4.492;2024-03-29T07:10:26;1.08;;;1.00;;
64029;SDS011;50277;52.064;4.492;2024-03-29T07:12:51;1.08;;;0.82;;
64029;SDS011;50277;52.064;4.492;2024-03-29T07:15:17;1.20;;;0.77;;
64029;SDS011;50277;52.064;4.492;2024-03-29T07:17:42;1.30;;;1.20;;
64029;SDS011;50277;52.064;4.492;2024-03-29T07:20:09;3.20;;;1.02;;
64029;SDS011;50277;52.064;4.492;2024-03-29T07:22:34;1.77;;;0.95;;
64029;SDS011;50277;52.064;4.492;2024-03-29T07:25:00;1.73;;;1.00;;
64029;SDS011;50277;52.064;4.492;2024-03-29T07:27:25;1.17;;;0.93;;
64029;SDS011;50277;52.064;4.492;2024-03-29T07:29:52;1.20;;;1.10;;
64029;SDS011;50277;52.064;4.492;2024-03-29T07:32:18;1.67;;;1.02;;
64029;SDS011;50277;52.064;4.492;2024-03-29T07:34:43;1.45;;;1.08;;
64029;SDS011;50277;52.064;4.492;2024-03-29T07:37:08;3.30;;;1.35;;
64029;SDS011;50277;52.064;4.492;2024-03-29T07:39:39;1.08;;;0.98;;
64029;SDS011;50277;52.064;4.492;2024-03-29T07:42:05;4.40;;;1.30;;
64029;SDS011;50277;52.064;4.492;2024-03-29T07:44:30;2.35;;;1.10;;
64029;SDS011;50277;52.064;4.492;2024-03-29T07:46:56;0.88;;;0.88;;
64029;SDS011;50277;52.064;4.492;2024-03-29T07:49:21;1.17;;;1.02;;
64029;SDS011;50277;52.064;4.492;2024-03-29T07:51:47;1.27;;;1.17;;
64029;SDS011;50277;52.064;4.492;2024-03-29T07:54:13;1.88;;;1.10;;
64029;SDS011;50277;52.064;4.492;2024-03-29T07:56:38;1.95;;;1.27;;
64029;SDS011;50277;52.064;4.492;2024-03-29T07:59:03;1.00;;;1.00;;
64029;SDS011;50277;52.064;4.492;2024-03-29T08:01:29;2.25;;;1.27;;
64029;SDS011;50277;52.064;4.492;2024-03-29T08:03:54;3.75;;;1.17;;
64029;SDS011;50277;52.064;4.492;2024-03-29T08:06:20;1.35;;;1.20;;
64029;SDS011;50277;52.064;4.492;2024-03-29T08:08:45;5.80;;;1.40;;
64029;SDS011;50277;52.064;4.492;2024-03-29T08:11:11;4.72;;;1.70;;
64029;SDS011;50277;52.064;4.492;2024-03-29T08:13:37;1.30;;;1.20;;
64029;SDS011;50277;52.064;4.492;2024-03-29T08:16:04;2.50;;;1.60;;
64029;SDS011;50277;52.064;4.492;2024-03-29T08:18:31;3.55;;;1.77;;
64029;SDS011;50277;52.064;4.492;2024-03-29T08:20:56;1.50;;;1.40;;
64029;SDS011;50277;52.064;4.492;2024-03-29T08:23:23;2.22;;;1.50;;
64029;SDS011;50277;52.064;4.492;2024-03-29T08:25:48;4.95;;;1.98;;
64029;SDS011;50277;52.064;4.492;2024-03-29T08:28:15;2.47;;;1.73;;
64029;SDS011;50277;52.064;4.492;2024-03-29T08:30:40;2.17;;;1.60;;
64029;SDS011;50277;52.064;4.492;2024-03-29T08:33:05;2.38;;;1.60;;
64029;SDS011;50277;52.064;4.492;2024-03-29T08:35:34;1.70;;;1.58;;
64029;SDS011;50277;52.064;4.492;2024-03-29T08:38:00;1.92;;;1.73;;
64029;SDS011;50277;52.064;4.492;2024-03-29T08:40:26;1.90;;;1.80;;
64029;SDS011;50277;52.064;4.492;2024-03-29T08:42:53;2.83;;;1.63;;
64029;SDS011;50277;52.064;4.492;2024-03-29T08:45:19;2.58;;;1.45;;
64029;SDS011;50277;52.064;4.492;2024-03-29T08:47:46;2.60;;;2.22;;
64029;SDS011;50277;52.064;4.492;2024-03-29T08:50:11;6.28;;;1.85;;
64029;SDS011;50277;52.064;4.492;2024-03-29T08:52:38;1.95;;;1.85;;
64029;SDS011;50277;52.064;4.492;2024-03-29T08:55:04;2.35;;;1.67;;
64029;SDS011;50277;52.064;4.492;2024-03-29T08:57:30;2.38;;;1.90;;
64029;SDS011;50277;52.064;4.492;2024-03-29T08:59:56;2.78;;;1.95;;
64029;SDS011;50277;52.064;4.492;2024-03-29T09:02:21;2.30;;;1.70;;
64029;SDS011;50277;52.064;4.492;2024-03-29T09:04:46;3.55;;;1.70;;
64029;SDS011;50277;52.064;4.492;2024-03-29T09:07:12;1.25;;;1.17;;
64029;SDS011;50277;52.064;4.492;2024-03-29T09:09:37;1.65;;;1.30;;
64029;SDS011;50277;52.064;4.492;2024-03-29T09:12:06;1.48;;;1.35;;
64029;SDS011;50277;52.064;4.492;2024-03-29T09:14:32;1.90;;;1.40;;
64029;SDS011;50277;52.064;4.492;2024-03-29T09:16:58;2.42;;;1.45;;
64029;SDS011;50277;52.064;4.492;2024-03-29T09:19:23;1.48;;;1.15;;
64029;SDS011;50277;52.064;4.492;2024-03-29T09:21:49;1.30;;;1.20;;
64029;SDS011;50277;52.064;4.492;2024-03-29T09:24:14;1.92;;;1.20;;
64029;SDS011;50277;52.064;4.492;2024-03-29T09:26:42;5.30;;;1.38;;
64029;SDS011;50277;52.064;4.492;2024-03-29T09:29:07;4.13;;;1.42;;
64029;SDS011;50277;52.064;4.492;2024-03-29T09:31:33;2.28;;;1.20;;
64029;SDS011;50277;52.064;4.492;2024-03-29T09:33:59;2.35;;;1.20;;
64029;SDS011;50277;52.064;4.492;2024-03-29T09:36:24;1.50;;;1.27;;
64029;SDS011;50277;52.064;4.492;2024-03-29T09:38:50;3.08;;;1.20;;
64029;SDS011;50277;52.064;4.492;2024-03-29T09:41:16;0.90;;;0.90;;
64029;SDS011;50277;52.064;4.492;2024-03-29T09:43:44;2.22;;;1.27;;
64029;SDS011;50277;52.064;4.492;2024-03-29T09:46:11;1.52;;;1.02;;
64029;SDS011;50277;52.064;4.492;2024-03-29T09:48:43;10.30;;;1.00;;
64029;SDS011;50277;52.064;4.492;2024-03-29T09:51:11;4.20;;;0.90;;
64029;SDS011;50277;52.064;4.492;2024-03-29T09:56:06;1.30;;;1.00;;
64029;SDS011;50277;52.064;4.492;2024-03-29T09:58:36;2.03;;;0.95;;
64029;SDS011;50277;52.064;4.492;2024-03-29T10:01:03;0.95;;;0.88;;
64029;SDS011;50277;52.064;4.492;2024-03-29T10:03:29;1.50;;;0.90;;
64029;SDS011;50277;52.064;4.492;2024-03-29T10:05:59;1.00;;;0.90;;
64029;SDS011;50277;52.064;4.492;2024-03-29T10:08:28;7.88;;;1.00;;
64029;SDS011;50277;52.064;4.492;2024-03-29T10:10:55;2.30;;;1.33;;
64029;SDS011;50277;52.064;4.492;2024-03-29T10:13:21;1.30;;;1.20;;
64029;SDS011;50277;52.064;4.492;2024-03-29T10:15:48;1.73;;;1.20;;
64029;SDS011;50277;52.064;4.492;2024-03-29T10:18:15;2.92;;;1.60;;
64029;SDS011;50277;52.064;4.492;2024-03-29T10:20:42;1.60;;;1.20;;
64029;SDS011;50277;52.064;4.492;2024-03-29T10:23:08;2.53;;;1.60;;
64029;SDS011;50277;52.064;4.492;2024-03-29T10:25:34;3.90;;;1.30;;
64029;SDS011;50277;52.064;4.492;2024-03-29T10:27:59;4.63;;;1.60;;
64029;SDS011;50277;52.064;4.492;2024-03-29T10:30:27;2.40;;;1.60;;
64029;SDS011;50277;52.064;4.492;2024-03-29T10:32:52;2.53;;;1.75;;
64029;SDS011;50277;52.064;4.492;2024-03-29T10:35:18;2.50;;;1.70;;
64029;SDS011;50277;52.064;4.492;2024-03-29T10:37:44;3.85;;;1.38;;
64029;SDS011;50277;52.064;4.492;2024-03-29T10:40:10;1.83;;;1.50;;
64029;SDS011;50277;52.064;4.492;2024-03-29T10:42:40;1.83;;;1.33;;
64029;SDS011;50277;52.064;4.492;2024-03-29T10:45:06;1.25;;;1.20;;
64029;SDS011;50277;52.064;4.492;2024-03-29T10:47:32;2.08;;;1.30;;
64029;SDS011;50277;52.064;4.492;2024-03-29T10:49:58;1.70;;;1.58;;
64029;SDS011;50277;52.064;4.492;2024-03-29T10:52:24;2.03;;;1.40;;
64029;SDS011;50277;52.064;4.492;2024-03-29T10:54:50;1.98;;;1.85;;
64029;SDS011;50277;52.064;4.492;2024-03-29T10:57:20;1.63;;;1.40;;
64029;SDS011;50277;52.064;4.492;2024-03-29T10:59:50;1.90;;;1.30;;
64029;SDS011;50277;52.064;4.492;2024-03-29T11:02:39;3.17;;;1.60;;
64029;SDS011;50277;52.064;4.492;2024-03-29T11:05:22;4.53;;;1.63;;
64029;SDS011;50277;52.064;4.492;2024-03-29T11:07:48;4.15;;;1.80;;
64029;SDS011;50277;52.064;4.492;2024-03-29T11:16:07;2.22;;;2.00;;
64029;SDS011;50277;52.064;4.492;2024-03-29T11:18:33;4.88;;;1.65;;
64029;SDS011;50277;52.064;4.492;2024-03-29T11:21:00;3.65;;;1.75;;
64029;SDS011;50277;52.064;4.492;2024-03-29T11:23:27;3.13;;;2.05;;
64029;SDS011;50277;52.064;4.492;2024-03-29T11:25:53;3.20;;;1.83;;
64029;SDS011;50277;52.064;4.492;2024-03-29T11:28:32;6.30;;;2.08;;
64029;SDS011;50277;52.064;4.492;2024-03-29T11:33:32;2.65;;;1.83;;
64029;SDS011;50277;52.064;4.492;2024-03-29T11:36:11;1.90;;;1.70;;
64029;SDS011;50277;52.064;4.492;2024-03-29T11:38:38;5.60;;;2.05;;
64029;SDS011;50277;52.064;4.492;2024-03-29T11:41:09;2.90;;;1.98;;
64029;SDS011;50277;52.064;4.492;2024-03-29T11:43:36;2.63;;;1.73;;
64029;SDS011;50277;52.064;4.492;2024-03-29T11:46:02;2.58;;;2.40;;
64029;SDS011;50277;52.064;4.492;2024-03-29T11:48:30;2.33;;;2.13;;
64029;SDS011;50277;52.064;4.492;2024-03-29T11:50:56;2.10;;;2.00;;
64029;SDS011;50277;52.064;4.492;2024-03-29T11:53:22;3.50;;;2.22;;
64029;SDS011;50277;52.064;4.492;2024-03-29T11:55:48;3.22;;;2.30;;
64029;SDS011;50277;52.064;4.492;2024-03-29T11:58:23;3.13;;;2.40;;
64029;SDS011;50277;52.064;4.492;2024-03-29T12:00:49;2.58;;;2.38;;
64029;SDS011;50277;52.064;4.492;2024-03-29T12:03:15;3.22;;;2.40;;
64029;SDS011;50277;52.064;4.492;2024-03-29T12:05:42;2.80;;;2.45;;
64029;SDS011;50277;52.064;4.492;2024-03-29T12:08:08;2.35;;;2.15;;
64029;SDS011;50277;52.064;4.492;2024-03-29T12:10:35;4.72;;;3.03;;
64029;SDS011;50277;52.064;4.492;2024-03-29T12:13:01;5.43;;;3.17;;
64029;SDS011;50277;52.064;4.492;2024-03-29T12:15:29;3.05;;;2.50;;
64029;SDS011;50277;52.064;4.492;2024-03-29T12:17:56;4.18;;;2.50;;
64029;SDS011;50277;52.064;4.492;2024-03-29T12:20:29;5.75;;;2.55;;
64029;SDS011;50277;52.064;4.492;2024-03-29T12:22:55;3.13;;;2.60;;
64029;SDS011;50277;52.064;4.492;2024-03-29T12:25:21;3.42;;;2.22;;
64029;SDS011;50277;52.064;4.492;2024-03-29T12:27:47;3.53;;;2.40;;
64029;SDS011;50277;52.064;4.492;2024-03-29T12:30:12;3.38;;;2.65;;
64029;SDS011;50277;52.064;4.492;2024-03-29T12:32:38;4.82;;;2.50;;
64029;SDS011;50277;52.064;4.492;2024-03-29T12:35:11;2.92;;;2.72;;
64029;SDS011;50277;52.064;4.492;2024-03-29T12:37:37;4.30;;;2.55;;
64029;SDS011;50277;52.064;4.492;2024-03-29T12:40:06;2.28;;;2.05;;
64029;SDS011;50277;52.064;4.492;2024-03-29T12:42:40;3.33;;;2.33;;
64029;SDS011;50277;52.064;4.492;2024-03-29T12:45:06;4.53;;;2.42;;
64029;SDS011;50277;52.064;4.492;2024-03-29T12:47:32;3.38;;;2.10;;
64029;SDS011;50277;52.064;4.492;2024-03-29T12:50:01;9.68;;;2.47;;
64029;SDS011;50277;52.064;4.492;2024-03-29T12:52:36;3.97;;;1.92;;
64029;SDS011;50277;52.064;4.492;2024-03-29T12:55:02;4.18;;;1.90;;
64029;SDS011;50277;52.064;4.492;2024-03-29T12:57:27;2.53;;;1.95;;
64029;SDS011;50277;52.064;4.492;2024-03-29T12:59:53;2.78;;;2.10;;
64029;SDS011;50277;52.064;4.492;2024-03-29T13:02:18;2.63;;;1.92;;
64029;SDS011;50277;52.064;4.492;2024-03-29T13:04:44;1.70;;;1.60;;
64029;SDS011;50277;52.064;4.492;2024-03-29T13:07:10;2.40;;;1.75;;
64029;SDS011;50277;52.064;4.492;2024-03-29T13:09:39;5.82;;;1.70;;
64029;SDS011;50277;52.064;4.492;2024-03-29T13:12:04;2.65;;;1.60;;
64029;SDS011;50277;52.064;4.492;2024-03-29T13:14:30;2.40;;;1.65;;
64029;SDS011;50277;52.064;4.492;2024-03-29T13:16:55;2.58;;;2.05;;
64029;SDS011;50277;52.064;4.492;2024-03-29T13:19:20;4.45;;;2.08;;
64029;SDS011;50277;52.064;4.492;2024-03-29T13:21:46;4.85;;;2.00;;
64029;SDS011;50277;52.064;4.492;2024-03-29T13:24:11;3.70;;;2.00;;
64029;SDS011;50277;52.064;4.492;2024-03-29T13:26:37;2.42;;;1.65;;
64029;SDS011;50277;52.064;4.492;2024-03-29T13:29:02;5.28;;;1.80;;
64029;SDS011;50277;52.064;4.492;2024-03-29T13:31:27;2.80;;;1.75;;
64029;SDS011;50277;52.064;4.492;2024-03-29T13:33:54;1.95;;;1.58;;
64029;SDS011;50277;52.064;4.492;2024-03-29T13:36:28;3.58;;;1.90;;
64029;SDS011;50277;52.064;4.492;2024-03-29T13:38:54;4.07;;;2.00;;
64029;SDS011;50277;52.064;4.492;2024-03-29T13:41:19;4.53;;;2.03;;
64029;SDS011;50277;52.064;4.492;2024-03-29T13:43:45;2.15;;;1.55;;
64029;SDS011;50277;52.064;4.492;2024-03-29T13:46:10;4.50;;;2.08;;
64029;SDS011;50277;52.064;4.492;2024-03-29T13:48:36;4.65;;;2.25;;
64029;SDS011;50277;52.064;4.492;2024-03-29T13:51:01;4.22;;;2.38;;
64029;SDS011;50277;52.064;4.492;2024-03-29T13:53:26;6.72;;;2.17;;
64029;SDS011;50277;52.064;4.492;2024-03-29T13:55:53;1.92;;;1.55;;
64029;SDS011;50277;52.064;4.492;2024-03-29T13:58:19;3.88;;;1.90;;
64029;SDS011;50277;52.064;4.492;2024-03-29T14:00:44;2.72;;;1.98;;
64029;SDS011;50277;52.064;4.492;2024-03-29T14:03:12;10.60;;;2.17;;
64029;SDS011;50277;52.064;4.492;2024-03-29T14:05:38;3.33;;;1.58;;
64029;SDS011;50277;52.064;4.492;2024-03-29T14:08:03;4.35;;;1.45;;
64029;SDS011;50277;52.064;4.492;2024-03-29T14:10:30;1.77;;;1.23;;
64029;SDS011;50277;52.064;4.492;2024-03-29T14:12:55;2.20;;;1.42;;
64029;SDS011;50277;52.064;4.492;2024-03-29T14:15:22;1.85;;;1.40;;
64029;SDS011;50277;52.064;4.492;2024-03-29T14:17:47;2.83;;;1.40;;
64029;SDS011;50277;52.064;4.492;2024-03-29T14:20:12;1.63;;;1.50;;
64029;SDS011;50277;52.064;4.492;2024-03-29T14:22:38;3.15;;;1.73;;
64029;SDS011;50277;52.064;4.492;2024-03-29T14:25:04;4.38;;;1.30;;
64029;SDS011;50277;52.064;4.492;2024-03-29T14:27:30;2.15;;;1.40;;
64029;SDS011;50277;52.064;4.492;2024-03-29T14:29:56;2.13;;;1.48;;
64029;SDS011;50277;52.064;4.492;2024-03-29T14:32:21;3.47;;;1.50;;
64029;SDS011;50277;52.064;4.492;2024-03-29T14:34:47;3.38;;;1.55;;
64029;SDS011;50277;52.064;4.492;2024-03-29T14:37:12;3.60;;;1.30;;
64029;SDS011;50277;52.064;4.492;2024-03-29T14:39:40;3.47;;;1.92;;
64029;SDS011;50277;52.064;4.492;2024-03-29T14:42:07;2.63;;;1.52;;
64029;SDS011;50277;52.064;4.492;2024-03-29T14:44:34;3.17;;;1.45;;
64029;SDS011;50277;52.064;4.492;2024-03-29T14:46:59;2.50;;;1.50;;
64029;SDS011;50277;52.064;4.492;2024-03-29T14:49:24;1.35;;;1.20;;
64029;SDS011;50277;52.064;4.492;2024-03-29T14:51:50;2.50;;;1.52;;
64029;SDS011;50277;52.064;4.492;2024-03-29T14:54:15;2.47;;;2.03;;